createdAt,value
2022-10-23T00:00:19.167Z,13.06
2022-10-23T00:02:52.922Z,13.11
2022-10-23T00:05:26.541Z,13.10
2022-10-23T00:08:00.009Z,13.09
2022-10-23T00:10:32.349Z,13.08
2022-10-23T00:13:04.746Z,13.13
2022-10-23T00:15:37.800Z,13.12
2022-10-23T00:18:10.332Z,13.12
2022-10-23T00:20:42.652Z,13.07
2022-10-23T00:23:16.455Z,13.05
2022-10-23T00:25:49.031Z,13.03
2022-10-23T00:28:21.442Z,12.94
2022-10-23T00:30:54.435Z,12.95
2022-10-23T00:33:26.914Z,12.70
2022-10-23T00:35:59.409Z,12.73
2022-10-23T00:38:31.903Z,12.73
2022-10-23T00:41:05.325Z,12.77
2022-10-23T00:43:57.442Z,12.72
2022-10-23T00:46:31.042Z,12.75
2022-10-23T00:49:05.169Z,12.78
2022-10-23T00:51:42.843Z,12.75
2022-10-23T00:54:25.684Z,12.69
2022-10-23T00:57:01.947Z,12.68
2022-10-23T00:59:35.303Z,12.66
2022-10-23T01:02:08.986Z,12.62
2022-10-23T01:04:41.624Z,12.58
2022-10-23T01:07:19.873Z,12.32
2022-10-23T01:09:59.043Z,12.33
2022-10-23T01:12:38.058Z,12.38
2022-10-23T01:15:16.797Z,12.34
2022-10-23T01:17:55.143Z,12.08
2022-10-23T01:20:41.896Z,12.06
2022-10-23T01:23:27.358Z,11.98
2022-10-23T01:26:14.902Z,11.99
2022-10-23T01:28:51.943Z,12.04
2022-10-23T01:31:33.462Z,12.17
2022-10-23T01:34:12.663Z,11.96
2022-10-23T01:36:50.586Z,12.06
2022-10-23T01:39:27.199Z,12.12
2022-10-23T01:42:07.390Z,12.13
2022-10-23T01:44:44.595Z,12.22
2022-10-23T01:50:05.938Z,12.26
2022-10-23T01:52:38.884Z,12.29
2022-10-23T01:55:13.236Z,12.19
2022-10-23T01:57:48.912Z,12.27
2022-10-23T02:00:22.690Z,12.34
2022-10-23T02:02:58.494Z,12.30
2022-10-23T02:05:54.059Z,12.32
2022-10-23T02:08:26.899Z,12.38
2022-10-23T02:11:06.747Z,12.37
2022-10-23T02:13:44.763Z,12.26
2022-10-23T02:16:30.328Z,12.37
2022-10-23T02:19:12.616Z,12.18
2022-10-23T02:21:52.230Z,12.21
2022-10-23T02:24:31.397Z,12.20
2022-10-23T02:27:11.418Z,12.30
2022-10-23T02:29:48.241Z,12.22
2022-10-23T02:32:24.598Z,12.34
2022-10-23T02:34:57.007Z,12.35
2022-10-23T02:37:29.709Z,12.35
2022-10-23T02:40:03.287Z,12.37
2022-10-23T02:42:51.289Z,12.26
2022-10-23T02:45:30.235Z,12.29
2022-10-23T02:48:12.084Z,12.40
2022-10-23T02:50:52.267Z,12.32
2022-10-23T02:53:35.167Z,12.18
2022-10-23T02:56:14.788Z,12.19
2022-10-23T02:58:55.996Z,12.26
2022-10-23T03:01:39.327Z,12.19
2022-10-23T03:04:15.727Z,12.27
2022-10-23T03:06:50.186Z,12.16
2022-10-23T03:09:25.590Z,12.16
2022-10-23T03:11:57.985Z,12.21
2022-10-23T03:14:30.362Z,12.27
2022-10-23T03:17:03.289Z,12.27
2022-10-23T03:19:36.351Z,12.26
2022-10-23T03:22:09.881Z,12.16
2022-10-23T03:24:42.483Z,12.13
2022-10-23T03:27:15.696Z,12.20
2022-10-23T03:29:48.424Z,12.21
2022-10-23T03:32:22.239Z,12.19
2022-10-23T03:34:55.247Z,12.19
2022-10-23T03:37:28.065Z,12.19
2022-10-23T03:40:00.677Z,12.18
2022-10-23T03:42:36.122Z,12.10
2022-10-23T03:45:09.312Z,12.01
2022-10-23T03:47:42.070Z,12.00
2022-10-23T03:50:15.362Z,11.94
2022-10-23T03:52:47.757Z,11.90
2022-10-23T03:55:20.099Z,11.83
2022-10-23T03:57:52.567Z,11.80
2022-10-23T04:00:25.562Z,11.78
2022-10-23T04:02:57.944Z,11.68
2022-10-23T04:05:30.997Z,11.64
2022-10-23T04:08:04.707Z,11.40
2022-10-23T04:10:38.831Z,11.36
2022-10-23T04:13:11.242Z,11.36
2022-10-23T04:15:52.953Z,11.22
2022-10-23T04:18:25.357Z,11.21
2022-10-23T04:20:58.346Z,11.10
2022-10-23T04:23:30.754Z,11.07
2022-10-23T04:26:03.693Z,11.05
2022-10-23T04:28:37.660Z,11.03
2022-10-23T04:31:10.031Z,10.94
2022-10-23T04:33:46.126Z,10.90
2022-10-23T04:36:32.692Z,10.81
2022-10-23T04:39:13.894Z,10.75
2022-10-23T04:41:46.863Z,10.73
2022-10-23T04:44:19.594Z,10.64
2022-10-23T04:46:51.958Z,10.33
2022-10-23T04:49:24.334Z,10.43
2022-10-23T04:52:17.728Z,10.29
2022-10-23T04:55:25.730Z,9.85
2022-10-23T04:58:18.438Z,9.73
2022-10-23T05:00:51.168Z,9.71
2022-10-23T05:03:29.035Z,9.73
2022-10-23T05:06:01.437Z,9.56
2022-10-23T05:08:45.494Z,9.53
2022-10-23T05:11:40.698Z,9.45
2022-10-23T05:14:16.270Z,9.68
2022-10-23T05:16:55.438Z,9.73
2022-10-23T05:19:34.434Z,9.80
2022-10-23T05:22:06.966Z,9.91
2022-10-23T05:24:53.663Z,10.14
2022-10-23T05:27:29.614Z,10.31
2022-10-23T05:30:02.214Z,10.42
2022-10-23T05:32:39.145Z,10.52
2022-10-23T05:35:16.296Z,10.25
2022-10-23T05:37:55.509Z,10.58
2022-10-23T05:40:31.106Z,10.73
2022-10-23T05:43:09.219Z,10.98
2022-10-23T05:46:07.960Z,10.98
2022-10-23T05:48:50.032Z,11.17
2022-10-23T05:51:43.694Z,11.45
2022-10-23T05:54:35.210Z,11.65
2022-10-23T05:57:27.412Z,11.72
2022-10-23T06:00:00.128Z,11.92
2022-10-23T06:02:33.170Z,11.99
2022-10-23T06:05:15.094Z,12.04
2022-10-23T06:07:59.711Z,12.14
2022-10-23T06:10:32.139Z,12.25
2022-10-23T06:13:08.524Z,12.31
2022-10-23T06:15:42.069Z,12.37
2022-10-23T06:18:26.186Z,12.46
2022-10-23T06:21:07.583Z,12.46
2022-10-23T06:23:42.720Z,12.47
2022-10-23T06:26:29.232Z,12.65
2022-10-23T06:29:07.229Z,12.69
2022-10-23T06:31:39.798Z,12.82
2022-10-23T06:34:12.644Z,12.87
2022-10-23T06:36:45.094Z,12.91
2022-10-23T06:39:35.383Z,13.02
2022-10-23T06:42:37.013Z,13.05
2022-10-23T06:45:31.834Z,13.19
2022-10-23T06:48:26.724Z,13.30
2022-10-23T06:51:12.547Z,13.41
2022-10-23T06:53:48.270Z,13.53
2022-10-23T06:56:46.629Z,13.56
2022-10-23T06:59:19.213Z,13.70
2022-10-23T07:04:32.843Z,13.93
2022-10-23T07:07:06.889Z,14.07
2022-10-23T07:09:48.009Z,14.21
2022-10-23T07:12:27.652Z,14.36
2022-10-23T07:15:20.008Z,14.49
2022-10-23T07:17:53.175Z,14.63
2022-10-23T07:20:27.592Z,14.72
2022-10-23T07:23:00.126Z,14.77
2022-10-23T07:25:36.199Z,14.80
2022-10-23T07:28:08.690Z,14.84
2022-10-23T07:30:42.262Z,14.87
2022-10-23T07:33:17.744Z,14.82
2022-10-23T07:36:07.480Z,14.87
2022-10-23T07:38:40.051Z,14.97
2022-10-23T07:41:12.785Z,15.12
2022-10-23T07:43:46.199Z,15.27
2022-10-23T07:46:19.651Z,15.40
2022-10-23T07:48:53.761Z,15.55
2022-10-23T07:51:27.000Z,15.62
2022-10-23T07:54:04.889Z,15.77
2022-10-23T07:56:56.017Z,15.89
2022-10-23T07:59:37.228Z,15.99
2022-10-23T08:02:16.086Z,16.17
2022-10-23T08:04:50.537Z,16.27
2022-10-23T08:07:39.983Z,16.34
2022-10-23T08:10:12.487Z,16.24
2022-10-23T08:12:47.216Z,16.37
2022-10-23T08:15:20.773Z,16.30
2022-10-23T08:18:00.286Z,16.35
2022-10-23T08:20:48.345Z,16.05
2022-10-23T08:23:20.674Z,16.17
2022-10-23T08:25:58.168Z,16.58
2022-10-23T08:28:31.108Z,16.62
2022-10-23T08:31:09.911Z,16.29
2022-10-23T08:33:42.961Z,16.62
2022-10-23T08:36:18.951Z,16.37
2022-10-23T08:38:52.971Z,16.35
2022-10-23T08:41:31.067Z,16.69
2022-10-23T08:44:27.841Z,16.83
2022-10-23T08:47:05.124Z,17.01
2022-10-23T08:50:00.210Z,16.87
2022-10-23T08:52:39.403Z,16.95
2022-10-23T08:55:17.721Z,17.04
2022-10-23T08:57:57.454Z,17.02
2022-10-23T09:00:30.368Z,17.01
2022-10-23T09:03:05.083Z,17.25
2022-10-23T09:05:54.434Z,17.24
2022-10-23T09:08:43.326Z,17.43
2022-10-23T09:11:25.060Z,17.55
2022-10-23T09:14:38.950Z,17.62
2022-10-23T09:17:22.700Z,17.78
2022-10-23T09:20:01.945Z,17.96
2022-10-23T09:22:34.381Z,17.90
2022-10-23T09:25:10.674Z,18.10
2022-10-23T09:27:48.635Z,18.44
2022-10-23T09:30:31.730Z,18.52
2022-10-23T09:33:14.865Z,18.55
2022-10-23T09:35:56.814Z,18.73
2022-10-23T09:38:31.599Z,18.89
2022-10-23T09:41:10.695Z,18.90
2022-10-23T09:43:43.428Z,18.91
2022-10-23T09:46:15.810Z,19.35
2022-10-23T09:48:59.824Z,19.67
2022-10-23T09:51:34.666Z,19.83
2022-10-23T09:54:15.312Z,19.95
2022-10-23T09:59:29.310Z,20.55
2022-10-23T10:02:03.945Z,20.77
2022-10-23T10:04:57.421Z,20.60
2022-10-23T10:07:33.330Z,20.81
2022-10-23T10:10:15.380Z,20.95
2022-10-23T10:12:54.812Z,20.72
2022-10-23T10:15:28.624Z,20.81
2022-10-23T10:18:14.244Z,20.90
2022-10-23T10:20:59.125Z,21.17
2022-10-23T10:23:37.934Z,21.61
2022-10-23T10:26:22.372Z,21.24
2022-10-23T10:29:10.302Z,21.17
2022-10-23T10:32:00.460Z,21.12
2022-10-23T10:34:42.886Z,21.35
2022-10-23T10:37:24.703Z,21.52
2022-10-23T10:40:02.989Z,21.63
2022-10-23T10:43:04.612Z,21.90
2022-10-23T10:45:53.260Z,21.96
2022-10-23T10:48:37.251Z,22.09
2022-10-23T10:51:35.174Z,22.07
2022-10-23T10:54:30.375Z,22.09
2022-10-23T10:57:13.039Z,22.10
2022-10-23T10:59:51.437Z,22.51
2022-10-23T11:02:28.128Z,21.94
2022-10-23T11:05:13.823Z,22.23
2022-10-23T11:07:54.721Z,22.16
2022-10-23T11:10:28.027Z,22.30
2022-10-23T11:13:00.449Z,22.45
2022-10-23T11:15:39.355Z,22.42
2022-10-23T11:18:18.523Z,21.93
2022-10-23T11:21:12.396Z,22.33
2022-10-23T11:24:31.975Z,22.60
2022-10-23T11:27:19.554Z,22.61
2022-10-23T11:30:07.988Z,21.86
2022-10-23T11:32:57.746Z,22.51
2022-10-23T11:35:47.511Z,22.56
2022-10-23T11:38:26.120Z,22.26
2022-10-23T11:41:01.885Z,22.51
2022-10-23T11:43:48.153Z,22.43
2022-10-23T11:46:32.019Z,22.58
2022-10-23T11:49:05.806Z,22.64
2022-10-23T11:51:40.048Z,22.06
2022-10-23T11:54:26.413Z,22.40
2022-10-23T11:57:10.957Z,22.71
2022-10-23T11:59:53.446Z,22.76
2022-10-23T12:02:31.234Z,22.69
2022-10-23T12:05:06.755Z,22.62
2022-10-23T12:07:41.772Z,22.89
2022-10-23T12:10:23.319Z,22.69
2022-10-23T12:12:58.853Z,22.81
2022-10-23T12:15:32.158Z,22.93
2022-10-23T12:18:12.998Z,22.98
2022-10-23T12:20:49.799Z,22.61
2022-10-23T12:23:49.118Z,22.69
2022-10-23T12:26:56.890Z,22.96
2022-10-23T12:29:45.041Z,23.10
2022-10-23T12:32:30.939Z,23.21
2022-10-23T12:35:33.110Z,23.28
2022-10-23T12:38:13.613Z,23.17
2022-10-23T12:40:50.470Z,23.18
2022-10-23T12:43:29.953Z,22.96
2022-10-23T12:46:05.286Z,23.11
2022-10-23T12:48:48.195Z,23.01
2022-10-23T12:51:23.530Z,23.05
2022-10-23T12:53:56.803Z,22.90
2022-10-23T12:56:35.580Z,23.00
2022-10-23T12:59:15.566Z,23.01
2022-10-23T13:01:52.449Z,22.83
2022-10-23T13:04:29.243Z,22.72
2022-10-23T13:07:03.219Z,22.49
2022-10-23T13:09:41.302Z,22.50
2022-10-23T13:12:40.927Z,22.59
2022-10-23T13:15:16.801Z,22.43
2022-10-23T13:18:01.878Z,22.12
2022-10-23T13:20:37.361Z,21.61
2022-10-23T13:23:16.058Z,21.94
2022-10-23T13:25:54.319Z,22.05
2022-10-23T13:28:28.945Z,21.78
2022-10-23T13:31:25.475Z,22.14
2022-10-23T13:34:23.140Z,22.18
2022-10-23T13:36:59.595Z,22.06
2022-10-23T13:39:33.790Z,22.15
2022-10-23T13:42:12.014Z,22.07
2022-10-23T13:44:44.370Z,22.11
2022-10-23T13:47:17.428Z,22.12
2022-10-23T13:49:49.732Z,21.99
2022-10-23T13:52:23.197Z,22.04
2022-10-23T13:54:55.615Z,22.11
2022-10-23T13:57:28.082Z,22.06
2022-10-23T14:00:00.362Z,21.94
2022-10-23T14:02:33.485Z,21.85
2022-10-23T14:05:05.974Z,21.44
2022-10-23T14:07:38.399Z,21.31
2022-10-23T14:10:10.730Z,21.32
2022-10-23T14:12:44.296Z,21.37
2022-10-23T14:15:16.959Z,21.42
2022-10-23T14:17:49.994Z,21.14
2022-10-23T14:20:25.652Z,21.22
2022-10-23T14:22:59.494Z,21.13
2022-10-23T14:25:31.787Z,21.00
2022-10-23T14:28:04.576Z,20.99
2022-10-23T14:30:37.438Z,20.99
2022-10-23T14:33:10.442Z,20.88
2022-10-23T14:35:42.769Z,20.84
2022-10-23T14:38:15.136Z,20.62
2022-10-23T14:40:47.442Z,20.38
2022-10-23T14:43:19.915Z,20.42
2022-10-23T14:45:52.238Z,20.25
2022-10-23T14:48:26.593Z,20.29
2022-10-23T14:50:59.083Z,20.28
2022-10-23T14:53:31.598Z,20.27
2022-10-23T14:56:04.352Z,20.26
2022-10-23T14:58:36.723Z,20.23
2022-10-23T15:01:09.902Z,20.20
2022-10-23T15:03:43.198Z,20.15
2022-10-23T15:06:18.278Z,20.05
2022-10-23T15:08:51.486Z,19.99
2022-10-23T15:11:24.583Z,19.90
2022-10-23T15:13:59.031Z,19.77
2022-10-23T15:16:31.458Z,19.65
2022-10-23T15:19:04.591Z,19.55
2022-10-23T15:21:37.956Z,19.49
2022-10-23T15:24:10.294Z,19.35
2022-10-23T15:26:43.388Z,19.26
2022-10-23T15:29:16.029Z,19.14
2022-10-23T15:31:57.996Z,19.01
2022-10-23T15:34:32.087Z,18.89
2022-10-23T15:37:05.020Z,18.78
2022-10-23T15:39:37.519Z,18.68
2022-10-23T15:42:10.334Z,18.55
2022-10-23T15:44:42.673Z,18.47
2022-10-23T15:47:15.059Z,18.33
2022-10-23T15:49:48.130Z,18.21
2022-10-23T15:52:20.503Z,18.00
2022-10-23T15:54:52.931Z,17.96
2022-10-23T15:57:26.404Z,17.84
2022-10-23T15:59:58.751Z,17.72
2022-10-23T16:02:31.121Z,17.65
2022-10-23T16:05:05.045Z,17.56
2022-10-23T16:07:37.382Z,17.43
2022-10-23T16:10:09.972Z,17.34
2022-10-23T16:12:42.632Z,17.24
2022-10-23T16:15:15.354Z,17.13
2022-10-23T16:17:48.174Z,16.95
2022-10-23T16:20:21.227Z,16.83
2022-10-23T16:22:54.298Z,16.78
2022-10-23T16:25:26.695Z,16.72
2022-10-23T16:27:59.243Z,16.67
2022-10-23T16:30:31.766Z,16.61
2022-10-23T16:33:04.048Z,16.55
2022-10-23T16:35:37.165Z,16.51
2022-10-23T16:38:17.919Z,16.41
2022-10-23T16:40:51.663Z,16.34
2022-10-23T16:43:45.667Z,16.27
2022-10-23T16:46:40.934Z,16.20
2022-10-23T16:49:13.792Z,16.15
2022-10-23T16:51:46.803Z,16.02
2022-10-23T16:54:19.112Z,15.90
2022-10-23T16:56:51.452Z,15.83
2022-10-23T16:59:24.059Z,15.73
2022-10-23T17:01:56.520Z,15.61
2022-10-23T17:04:28.927Z,15.57
2022-10-23T17:07:02.040Z,15.56
2022-10-23T17:09:35.046Z,15.44
2022-10-23T17:12:07.797Z,15.46
2022-10-23T17:14:40.136Z,15.42
2022-10-23T17:17:12.926Z,15.38
2022-10-23T17:19:46.457Z,15.32
2022-10-23T17:22:19.739Z,15.27
2022-10-23T17:24:53.178Z,15.16
2022-10-23T17:27:26.515Z,15.13
2022-10-23T17:29:58.857Z,15.06
2022-10-23T17:32:31.215Z,14.98
2022-10-23T17:35:04.653Z,14.95
2022-10-23T17:37:37.722Z,14.90
2022-10-23T17:40:10.778Z,14.84
2022-10-23T17:42:43.452Z,14.81
2022-10-23T17:45:16.014Z,14.61
2022-10-23T17:47:48.367Z,14.35
2022-10-23T17:50:20.676Z,14.32
2022-10-23T17:52:53.682Z,14.22
2022-10-23T17:55:26.091Z,14.13
2022-10-23T17:57:58.900Z,14.08
2022-10-23T18:00:31.518Z,14.14
2022-10-23T18:03:04.642Z,14.08
2022-10-23T18:05:37.052Z,14.07
2022-10-23T18:08:10.070Z,14.02
2022-10-23T18:10:42.410Z,13.85
2022-10-23T18:13:14.783Z,13.86
2022-10-23T18:15:47.071Z,13.71
2022-10-23T18:18:19.444Z,13.67
2022-10-23T18:20:51.835Z,13.63
2022-10-23T18:23:25.049Z,13.65
2022-10-23T18:25:58.629Z,13.45
2022-10-23T18:28:31.770Z,13.38
2022-10-23T18:31:07.771Z,13.19
2022-10-23T18:33:40.500Z,12.99
2022-10-23T18:36:14.712Z,12.89
2022-10-23T18:38:47.959Z,12.61
2022-10-23T18:41:22.925Z,12.59
2022-10-23T18:43:55.295Z,12.39
2022-10-23T18:46:27.883Z,12.44
2022-10-23T18:49:00.384Z,12.52
2022-10-23T18:51:34.978Z,12.55
2022-10-23T18:54:11.039Z,12.59
2022-10-23T18:56:44.220Z,12.59
2022-10-23T18:59:18.661Z,12.68
2022-10-23T19:01:51.213Z,12.66
2022-10-23T19:04:23.656Z,12.66
2022-10-23T19:06:56.167Z,12.66
2022-10-23T19:09:29.153Z,12.56
2022-10-23T19:12:01.739Z,12.51
2022-10-23T19:14:34.185Z,12.54
2022-10-23T19:17:10.724Z,12.43
2022-10-23T19:19:46.609Z,12.33
2022-10-23T19:22:19.032Z,12.42
2022-10-23T19:24:57.282Z,12.38
2022-10-23T19:27:30.264Z,12.29
2022-10-23T19:30:05.806Z,12.31
2022-10-23T19:32:38.122Z,12.26
2022-10-23T19:35:11.681Z,12.38
2022-10-23T19:37:45.657Z,12.38
2022-10-23T19:40:19.165Z,12.41
2022-10-23T19:42:53.503Z,12.41
2022-10-23T19:45:25.914Z,12.41
2022-10-23T19:47:58.270Z,12.37
2022-10-23T19:50:30.603Z,12.28
2022-10-23T19:53:02.973Z,12.29
2022-10-23T19:55:36.059Z,12.16
2022-10-23T19:58:08.361Z,12.17
2022-10-23T20:00:40.732Z,12.11
2022-10-23T20:03:13.208Z,12.11
2022-10-23T20:05:45.595Z,12.07
2022-10-23T20:08:17.914Z,12.04
2022-10-23T20:10:50.974Z,11.93
2022-10-23T20:13:23.573Z,11.91
2022-10-23T20:15:56.199Z,11.87
2022-10-23T20:18:28.515Z,11.80
2022-10-23T20:21:01.885Z,11.85
2022-10-23T20:23:34.213Z,11.73
2022-10-23T20:26:09.187Z,11.64
2022-10-23T20:28:43.605Z,11.73
2022-10-23T20:31:16.618Z,11.76
2022-10-23T20:33:49.442Z,11.65
2022-10-23T20:36:24.826Z,11.64
2022-10-23T20:38:57.991Z,11.62
2022-10-23T20:41:32.566Z,11.62
2022-10-23T20:44:06.522Z,11.62
2022-10-23T20:46:39.027Z,11.55
2022-10-23T20:49:12.583Z,11.43
2022-10-23T20:51:45.382Z,11.46
2022-10-23T20:54:17.677Z,11.55
2022-10-23T20:56:50.744Z,11.43
2022-10-23T20:59:23.118Z,11.40
2022-10-23T21:01:56.631Z,11.43
2022-10-23T21:04:29.223Z,11.38
2022-10-23T21:07:10.412Z,11.29
2022-10-23T21:09:43.951Z,11.30
2022-10-23T21:12:17.336Z,11.31
2022-10-23T21:14:49.661Z,11.31
2022-10-23T21:17:22.085Z,11.33
2022-10-23T21:19:54.471Z,11.30
2022-10-23T21:22:26.827Z,11.25
2022-10-23T21:24:59.885Z,11.21
2022-10-23T21:27:32.892Z,11.26
2022-10-23T21:30:06.591Z,11.22
2022-10-23T21:32:39.593Z,11.22
2022-10-23T21:35:11.906Z,11.23
2022-10-23T21:37:44.409Z,11.23
2022-10-23T21:40:17.066Z,11.10
2022-10-23T21:42:50.127Z,11.16
2022-10-23T21:45:22.455Z,11.13
2022-10-23T21:47:54.823Z,11.06
2022-10-23T21:50:27.246Z,11.04
2022-10-23T21:52:59.588Z,11.07
2022-10-23T21:55:31.980Z,11.11
2022-10-23T21:58:04.991Z,10.95
2022-10-23T22:00:37.345Z,10.90
2022-10-23T22:03:09.651Z,10.98
2022-10-23T22:05:42.074Z,10.94
2022-10-23T22:08:14.451Z,11.00
2022-10-23T22:10:46.866Z,10.93
2022-10-23T22:13:19.879Z,10.92
2022-10-23T22:15:52.227Z,10.92
2022-10-23T22:18:24.663Z,10.84
2022-10-23T22:21:01.268Z,10.86
2022-10-23T22:23:34.533Z,10.78
2022-10-23T22:26:08.440Z,10.67
2022-10-23T22:28:41.429Z,10.66
2022-10-23T22:31:14.680Z,10.74
2022-10-23T22:33:47.616Z,10.69
2022-10-23T22:36:20.678Z,10.78
2022-10-23T22:38:54.007Z,10.70
2022-10-23T22:41:26.374Z,10.61
2022-10-23T22:43:59.854Z,10.58
2022-10-23T22:46:32.247Z,10.58
2022-10-23T22:51:39.037Z,10.69
2022-10-23T22:54:11.501Z,10.71
2022-10-23T22:56:43.799Z,10.73
2022-10-23T22:59:16.883Z,10.78
2022-10-23T23:01:50.568Z,10.81
2022-10-23T23:04:39.154Z,10.79
2022-10-23T23:07:12.561Z,10.77
2022-10-23T23:09:44.954Z,10.85
2022-10-23T23:12:17.286Z,10.84
2022-10-23T23:14:50.253Z,10.80
2022-10-23T23:17:22.567Z,10.85
2022-10-23T23:19:54.938Z,10.62
2022-10-23T23:25:05.203Z,10.50
2022-10-23T23:27:39.534Z,10.63
2022-10-23T23:30:12.767Z,10.73
2022-10-23T23:32:48.075Z,10.77
2022-10-23T23:35:20.690Z,10.79
2022-10-23T23:37:53.009Z,10.75
2022-10-23T23:40:26.075Z,10.68
2022-10-23T23:42:58.508Z,10.59
2022-10-23T23:45:31.922Z,10.64
2022-10-23T23:48:04.581Z,10.68
2022-10-23T23:50:36.904Z,10.69
2022-10-23T23:53:09.508Z,10.73
2022-10-23T23:58:19.118Z,10.80
